createdAt,value
2019-04-21T00:02:05.794Z,18.25
2019-04-21T00:07:28.089Z,15.25
2019-04-21T00:12:28.671Z,18.00
2019-04-21T00:17:24.424Z,17.50
2019-04-21T00:22:38.033Z,15.20
2019-04-21T00:27:47.760Z,17.00
2019-04-21T00:32:48.759Z,16.50
2019-04-21T00:38:00.553Z,17.50
2019-04-21T00:43:03.596Z,15.75
2019-04-21T00:48:16.594Z,15.00
2019-04-21T00:53:32.138Z,14.80
2019-04-21T00:58:33.281Z,18.00
2019-04-21T01:03:43.256Z,15.40
2019-04-21T01:08:42.662Z,15.50
2019-04-21T01:13:51.721Z,15.20
2019-04-21T01:18:51.692Z,15.00
2019-04-21T01:23:38.144Z,14.50
2019-04-21T01:29:02.787Z,16.40
2019-04-21T01:34:08.401Z,14.00
2019-04-21T01:39:14.989Z,14.00
2019-04-21T01:44:25.072Z,13.25
2019-04-21T01:49:15.808Z,15.00
2019-04-21T01:54:48.297Z,16.00
2019-04-21T01:59:45.760Z,12.80
2019-04-21T02:05:06.971Z,12.75
2019-04-21T02:10:06.485Z,12.80
2019-04-21T02:15:11.538Z,13.00
2019-04-21T02:20:06.693Z,12.00
2019-04-21T02:25:23.112Z,13.00
2019-04-21T02:30:50.071Z,12.40
2019-04-21T02:35:50.866Z,13.00
2019-04-21T02:45:58.598Z,14.50
2019-04-21T02:50:52.901Z,13.25
2019-04-21T03:01:38.299Z,12.00
2019-04-21T03:12:07.020Z,13.25
2019-04-21T03:17:05.637Z,13.00
2019-04-21T03:22:12.894Z,13.00
2019-04-21T03:27:37.719Z,12.50
2019-04-21T03:42:33.779Z,11.25
2019-04-21T03:52:46.333Z,12.00
2019-04-21T04:08:22.810Z,12.50
2019-04-21T04:13:19.357Z,11.00
2019-04-21T04:18:28.575Z,12.00
2019-04-21T04:23:31.603Z,12.00
2019-04-21T04:28:38.362Z,12.00
2019-04-21T04:33:53.420Z,11.75
2019-04-21T04:38:46.847Z,9.00
2019-04-21T04:53:58.819Z,10.00
2019-04-21T04:59:28.175Z,12.00
2019-04-21T05:09:15.443Z,10.40
2019-04-21T05:20:15.664Z,11.25
2019-04-21T05:24:25.345Z,10.00
2019-04-21T05:29:38.811Z,9.00
2019-04-21T05:34:50.390Z,10.00
2019-04-21T05:39:57.870Z,10.50
2019-04-21T05:45:24.157Z,11.00
2019-04-21T05:50:14.131Z,9.40
2019-04-21T05:55:31.755Z,9.20
2019-04-21T06:00:46.742Z,9.25
2019-04-21T06:10:43.288Z,10.20
2019-04-21T06:15:50.280Z,9.20
2019-04-21T06:20:54.281Z,10.25
2019-04-21T06:26:12.176Z,8.60
2019-04-21T06:31:12.587Z,9.00
2019-04-21T06:36:36.324Z,9.75
2019-04-21T06:46:48.893Z,11.20
2019-04-21T06:51:43.213Z,9.25
2019-04-21T06:57:17.059Z,9.50
2019-04-21T07:01:56.722Z,8.50
2019-04-21T07:06:59.261Z,52.25
2019-04-21T07:12:07.488Z,52.25
2019-04-21T07:17:20.116Z,48.25
2019-04-21T07:22:17.760Z,48.75
2019-04-21T07:27:28.955Z,46.50
2019-04-21T07:32:51.322Z,42.20
2019-04-21T07:37:35.294Z,45.50
2019-04-21T07:42:38.003Z,47.00
2019-04-21T07:47:51.769Z,44.25
2019-04-21T07:53:08.015Z,39.40
2019-04-21T07:58:12.460Z,34.25
2019-04-21T08:03:13.918Z,33.20
2019-04-21T08:08:15.683Z,30.00
2019-04-21T08:13:38.189Z,33.60
2019-04-21T08:18:35.018Z,25.50
2019-04-21T08:23:37.024Z,25.60
2019-04-21T08:28:49.468Z,25.75
2019-04-21T08:33:55.410Z,27.75
2019-04-21T08:38:53.966Z,24.25
2019-04-21T08:43:56.124Z,25.75
2019-04-21T08:49:08.050Z,25.75
2019-04-21T08:54:15.175Z,23.75
2019-04-21T08:59:39.053Z,19.00
2019-04-21T09:04:44.686Z,18.50
2019-04-21T09:09:54.332Z,18.75
2019-04-21T09:14:56.729Z,17.00
2019-04-21T09:20:10.659Z,16.00
2019-04-21T09:25:01.466Z,22.00
2019-04-21T09:29:57.674Z,24.20
2019-04-21T09:35:05.429Z,20.60
2019-04-21T09:40:04.926Z,21.00
2019-04-21T09:45:11.772Z,20.80
2019-04-21T09:50:15.164Z,34.75
2019-04-21T09:55:22.866Z,87.67
2019-04-21T10:00:28.720Z,176.50
2019-04-21T10:05:30.005Z,157.50
2019-04-21T10:10:34.184Z,117.00
2019-04-21T10:15:38.060Z,112.80
2019-04-21T10:20:42.784Z,96.00
2019-04-21T10:25:46.724Z,66.80
2019-04-21T10:30:50.961Z,54.75
2019-04-21T10:35:55.140Z,51.40
2019-04-21T11:34:39.011Z,25.80
2019-04-21T11:39:52.183Z,22.75
2019-04-21T11:44:49.431Z,28.50
2019-04-21T11:49:54.829Z,31.60
2019-04-21T11:54:58.796Z,31.00
2019-04-21T12:00:03.822Z,29.75
2019-04-21T12:05:09.753Z,29.20
2019-04-21T12:10:13.620Z,27.60
2019-04-21T12:15:18.748Z,28.40
2019-04-21T12:20:22.745Z,25.80
2019-04-21T12:25:29.747Z,27.75
2019-04-21T12:30:33.590Z,28.00
2019-04-21T12:35:37.805Z,26.75
2019-04-21T12:40:42.272Z,26.80
2019-04-21T12:45:46.164Z,22.60
2019-04-21T12:50:49.999Z,23.00
2019-04-21T12:55:53.891Z,24.25
2019-04-21T13:00:58.854Z,24.60
2019-04-21T13:06:03.476Z,21.75
2019-04-21T13:11:09.397Z,23.50
2019-04-21T13:16:13.592Z,23.00
2019-04-21T13:21:18.144Z,35.00
2019-04-21T13:26:29.670Z,30.40
2019-04-21T13:31:27.597Z,31.50
2019-04-21T13:36:31.746Z,30.50
2019-04-21T13:41:48.345Z,25.00
2019-04-21T13:46:43.014Z,31.75
2019-04-21T13:51:48.019Z,26.60
2019-04-21T13:56:52.369Z,29.00
2019-04-21T14:01:56.294Z,26.25
2019-04-21T14:07:00.510Z,31.20
2019-04-21T14:12:05.412Z,27.75
2019-04-21T14:17:10.795Z,29.50
2019-04-21T14:22:16.401Z,29.20
2019-04-21T14:27:20.504Z,29.50
2019-04-21T14:32:24.432Z,23.75
2019-04-21T14:37:28.762Z,24.25
2019-04-21T14:42:33.929Z,25.75
2019-04-21T14:47:56.711Z,25.25
2019-04-21T14:53:17.938Z,22.50
2019-04-21T14:58:23.275Z,23.50
2019-04-21T15:03:27.839Z,25.75
2019-04-21T15:08:33.282Z,23.75
2019-04-21T15:13:37.713Z,22.25
2019-04-21T15:18:41.475Z,20.75
2019-04-21T15:23:46.560Z,22.75
2019-04-21T15:28:51.015Z,19.75
2019-04-21T15:33:55.016Z,22.00
2019-04-21T15:38:58.812Z,19.75
2019-04-21T15:44:04.768Z,21.25
2019-04-21T15:49:09.235Z,20.75
2019-04-21T15:54:14.364Z,21.20
2019-04-21T15:59:34.703Z,18.60
2019-04-21T16:04:38.947Z,19.25
2019-04-21T16:09:43.963Z,20.25
2019-04-21T16:14:47.890Z,18.25
2019-04-21T16:19:52.194Z,15.60
2019-04-21T16:24:56.839Z,19.40
2019-04-21T16:30:01.964Z,17.25
2019-04-21T16:35:10.462Z,19.80
2019-04-21T16:40:13.691Z,20.25
2019-04-21T16:45:18.840Z,16.50
2019-04-21T16:50:23.582Z,17.20
2019-04-21T16:55:35.313Z,18.00
2019-04-21T17:00:44.850Z,18.00
2019-04-21T17:05:45.864Z,19.00
2019-04-21T17:11:05.604Z,15.75
2019-04-21T17:16:16.443Z,14.75
2019-04-21T17:21:02.914Z,17.40
2019-04-21T17:26:06.627Z,17.75
2019-04-21T17:31:10.929Z,15.50
2019-04-21T17:36:14.844Z,14.50
2019-04-21T17:41:27.860Z,15.00
2019-04-21T17:46:34.501Z,14.60
2019-04-21T17:51:55.621Z,14.80
2019-04-21T17:57:32.088Z,17.75
2019-04-21T18:02:26.367Z,15.00
2019-04-21T18:07:31.471Z,15.00
2019-04-21T18:12:28.036Z,15.75
2019-04-21T18:17:20.700Z,16.20
2019-04-21T18:22:51.261Z,13.25
2019-04-21T18:27:54.563Z,15.75
2019-04-21T18:32:59.945Z,13.00
2019-04-21T18:38:16.910Z,15.00
2019-04-21T18:43:50.160Z,15.75
2019-04-21T18:48:38.873Z,11.80
2019-04-21T18:54:22.643Z,13.40
2019-04-21T18:59:08.887Z,11.00
2019-04-21T19:04:19.670Z,13.75
2019-04-21T19:09:55.921Z,16.75
2019-04-21T19:14:41.119Z,13.00
2019-04-21T19:24:52.296Z,12.20
2019-04-21T19:30:05.475Z,15.00
2019-04-21T19:34:48.574Z,14.50
2019-04-21T19:40:05.682Z,15.00
2019-04-21T19:45:14.982Z,15.60
2019-04-21T19:50:26.359Z,14.50
2019-04-21T19:55:09.752Z,12.60
2019-04-21T20:00:15.518Z,18.40
2019-04-21T20:05:27.153Z,13.25
2019-04-21T20:10:44.334Z,17.00
2019-04-21T20:15:52.042Z,13.25
2019-04-21T20:20:37.236Z,11.80
2019-04-21T20:25:47.489Z,14.00
2019-04-21T20:31:06.766Z,12.00
2019-04-21T20:36:16.939Z,13.50
2019-04-21T20:41:07.767Z,14.00
2019-04-21T20:46:18.188Z,12.25
2019-04-21T20:51:29.880Z,14.20
2019-04-21T20:56:26.872Z,15.50
2019-04-21T21:01:36.214Z,12.75
2019-04-21T21:06:43.858Z,14.00
2019-04-21T21:11:56.926Z,13.25
2019-04-21T21:16:56.621Z,15.20
2019-04-21T21:21:56.335Z,14.40
2019-04-21T21:27:07.479Z,11.75
2019-04-21T21:32:18.486Z,12.60
2019-04-21T21:37:26.640Z,12.25
2019-04-21T21:42:06.096Z,14.20
2019-04-21T21:47:24.191Z,12.00
2019-04-21T21:52:30.475Z,13.00
2019-04-21T21:57:20.678Z,12.00
2019-04-21T22:02:33.066Z,12.00
2019-04-21T22:07:33.218Z,14.75
2019-04-21T22:12:45.782Z,12.50
2019-04-21T22:17:54.001Z,12.00
2019-04-21T22:22:56.151Z,11.50
2019-04-21T22:27:53.678Z,13.00
2019-04-21T22:33:04.513Z,12.75
2019-04-21T22:38:19.831Z,11.80
2019-04-21T22:43:19.817Z,14.00
2019-04-21T22:48:18.249Z,13.20
2019-04-21T22:53:21.409Z,10.00
2019-04-21T22:58:31.951Z,10.25
2019-04-21T23:03:32.549Z,10.00
2019-04-21T23:08:41.977Z,10.00
2019-04-21T23:13:45.110Z,11.00
2019-04-21T23:19:07.764Z,11.00
2019-04-21T23:24:11.260Z,10.80
2019-04-21T23:29:17.427Z,10.40
2019-04-21T23:34:06.300Z,9.00
2019-04-21T23:39:16.007Z,11.80
2019-04-21T23:44:18.981Z,10.80
2019-04-21T23:49:34.573Z,11.75
2019-04-21T23:54:27.313Z,10.40
2019-04-21T23:59:38.691Z,10.00
